Partly cloudy and few cirrus
Partly cloudy
Mostly cloudy
Partly cloudy and few cirrus
Partly cloudy and cirrus
Clear with few low clouds and cirrus
Clear with few low clouds and cirrus
(°C)
24°
24°
23°
23°
21°
21°
20°
20°
19°
19°
18°
18°
17°
17°
(°C)
18°
17°
16°
15°
14°
12°
11°
WSW
SW
S
SSW
SW
WSW
SW
(km/h)
14-29
12-25
11-21
12-24
14-27
15-27
14-24
(mm)
0
0
0
0
0
0
0
(%)
0
0
0
0
0
0
0

Sun elevation

/ 5.2°
sun-icon
UV 10
05:57
20:22
Waning gibbous moon (192°)
22:06
06:24

METAR for Farmington (KFMN)

Time Conditions Temperature/
Dewpoint
Wind Visibility Weather Clouds Pressure Change Raw
VFR 24.4°C / -9.4°C 4kt >10km - Clear 1005 - KFMN 250053Z VRB04KT 10SM CLR 24/M09 A2984 RMK AO2 SLP059 T02441094 $
VFR 25°C / -8.9°C 240º 4kt >10km - Clear 1006 - KFMN 242353Z 24004KT 10SM CLR 25/M09 A2986 RMK AO2 SLP064 T02501089 10267 20200 $
VFR 24.4°C / °C 5kt >10km - Clear 1007 - KFMN 242153Z VRB05KT 10SM CLR 24/M10 A2990 RMK AO2 SLP076 T02441100
VFR 23.9°C / °C 6kt >10km - Clear 1008 - KFMN 242053Z VRB06KT 10SM CLR 24/M10 A2993 RMK AO2 SLP086 T02391100 58019
VFR 23.9°C / °C 200º 5kt >10km - Clear 1009 - KFMN 241953Z 20005KT 10SM CLR 24/M11 A2995 RMK AO2 SLP092 T02391106
VFR 22.8°C / °C 270º 7kt >10km - Clear 1009 - KFMN 241853Z 27007KT 10SM CLR 23/M11 A2998 RMK AO2 SLP098 T02281111
VFR 21.1°C / °C 5kt >10km - Clear 1010 - KFMN 241753Z VRB05KT 10SM CLR 21/M13 A2999 RMK AO2 SLP106 T02111133 10222 20072 58009
VFR 20.6°C / °C variable 0kt >10km - Clear 1010 - KFMN 241653Z 00000KT 10SM CLR 21/M13 A3001 RMK AO2 SLP109 T02061133
VFR 17.8°C / °C 210º 4kt >10km - Clear 1011 - KFMN 241553Z 21004KT 10SM CLR 18/M13 A3002 RMK AO2 SLP113 T01781133
VFR 14.4°C / °C 230º 5kt >10km - Clear 1011 - KFMN 241453Z 23005KT 10SM CLR 14/M12 A3003 RMK AO2 SLP118 T01441117 51013
VFR 12.2°C / °C variable 0kt >10km - Clear 1011 - KFMN 241353Z 00000KT 10SM CLR 12/M13 A3002 RMK AO2 SLP116 T01221128
VFR 8.3°C / °C 20º 3kt >10km - Overcast 12000ft 1011 - KFMN 241253Z 02003KT 10SM OVC120 08/M13 A3000 RMK AO2 SLP113 T00831133
VFR 8.9°C / °C 190º 3kt >10km - Clear 1010 - KFMN 241153Z 19003KT 10SM CLR 09/M14 A2998 RMK AO2 SLP105 T00891139 10167 20078 51006
VFR 10°C / °C 270º 5kt >10km - Clear 1010 - KFMN 241053Z AUTO 27005KT 10SM CLR 10/M16 A2998 RMK AO2 SLP101 T01001156
VFR 11.1°C / °C variable 0kt >10km - Clear 1009 - KFMN 240953Z AUTO 00000KT 10SM CLR 11/M15 A2997 RMK AO2 SLP098 T01111150
VFR 11.7°C / °C 250º 6kt >10km - Clear 1009 - KFMN 240853Z AUTO 25006KT 10SM CLR 12/M14 A2996 RMK AO2 SLP094 T01171139 53014
VFR 13.9°C / -8.3°C 270º 7kt >10km - Clear 1008 - KFMN 240753Z AUTO 27007KT 10SM CLR 14/M08 A2994 RMK AO2 SLP084 T01391083
VFR 15.6°C / -7.8°C 290º 8kt >10km - Clear 1007 - KFMN 240653Z AUTO 29008KT 10SM CLR 16/M08 A2993 RMK AO2 SLP079 T01561078 402720078
VFR 16.7°C / -7.2°C 320º 7kt >10km - Clear 1007 - KFMN 240553Z AUTO 32007KT 10SM CLR 17/M07 A2991 RMK AO2 SLP072 T01671072 10267 20161 53019
VFR 18.3°C / -6.7°C 340º 7kt >10km - Few Clouds 12000ft 1006 - KFMN 240453Z AUTO 34007KT 10SM FEW120 18/M07 A2989 RMK AO2 SLP064 T01831067
VFR 21.1°C / -7.2°C 330º 13kt Gust 19kt. Wind Shift present. >10km - Overcast 12000ft 1004 - KFMN 240353Z AUTO 33013G19KT 10SM OVC120 21/M07 A2985 RMK AO2 WSHFT 0328 SLP048 T02111072
VFR 21°C / -7°C 320º 12kt. Wind Shift present. >10km - Broken Clouds 12000ft - KFMN 240348Z AUTO 32012KT 10SM BKN120 21/M07 A2985 RMK AO2 WSHFT 0328
VFR 22.8°C / °C 270º 14kt Gust 22kt >10km - Clear 1004 - KFMN 240253Z 27014G22KT 10SM CLR 23/M10 A2982 RMK AO2 SLP040 T02281100 53006
VFR 23.9°C / °C 260º 12kt Gust 21kt >10km - Clear 1003 - KFMN 240153Z 26012G21KT 10SM CLR 24/M11 A2980 RMK AO2 PK WND 30027/0106 SLP037 T02391111

VFR

24.4°C / -9.4°C

[More]
Wind 4kt
Visibility >10km
Weather -
Clouds Clear
Pressure 1005
Change -
Raw KFMN 250053Z VRB04KT 10SM CLR 24/M09 A2984 RMK AO2 SLP059 T02441094 $

VFR

25°C / -8.9°C

[More]
Wind 240º 4kt
Visibility >10km
Weather -
Clouds Clear
Pressure 1006
Change -
Raw KFMN 242353Z 24004KT 10SM CLR 25/M09 A2986 RMK AO2 SLP064 T02501089 10267 20200 $

VFR

24.4°C / °C

[More]
Wind 5kt
Visibility >10km
Weather -
Clouds Clear
Pressure 1007
Change -
Raw KFMN 242153Z VRB05KT 10SM CLR 24/M10 A2990 RMK AO2 SLP076 T02441100

VFR

23.9°C / °C

[More]
Wind 6kt
Visibility >10km
Weather -
Clouds Clear
Pressure 1008
Change -
Raw KFMN 242053Z VRB06KT 10SM CLR 24/M10 A2993 RMK AO2 SLP086 T02391100 58019

VFR

23.9°C / °C

[More]
Wind 200º 5kt
Visibility >10km
Weather -
Clouds Clear
Pressure 1009
Change -
Raw KFMN 241953Z 20005KT 10SM CLR 24/M11 A2995 RMK AO2 SLP092 T02391106

VFR

22.8°C / °C

[More]
Wind 270º 7kt
Visibility >10km
Weather -
Clouds Clear
Pressure 1009
Change -
Raw KFMN 241853Z 27007KT 10SM CLR 23/M11 A2998 RMK AO2 SLP098 T02281111

VFR

21.1°C / °C

[More]
Wind 5kt
Visibility >10km
Weather -
Clouds Clear
Pressure 1010
Change -
Raw KFMN 241753Z VRB05KT 10SM CLR 21/M13 A2999 RMK AO2 SLP106 T02111133 10222 20072 58009

VFR

20.6°C / °C

[More]
Wind variable 0kt
Visibility >10km
Weather -
Clouds Clear
Pressure 1010
Change -
Raw KFMN 241653Z 00000KT 10SM CLR 21/M13 A3001 RMK AO2 SLP109 T02061133

VFR

17.8°C / °C

[More]
Wind 210º 4kt
Visibility >10km
Weather -
Clouds Clear
Pressure 1011
Change -
Raw KFMN 241553Z 21004KT 10SM CLR 18/M13 A3002 RMK AO2 SLP113 T01781133

VFR

14.4°C / °C

[More]
Wind 230º 5kt
Visibility >10km
Weather -
Clouds Clear
Pressure 1011
Change -
Raw KFMN 241453Z 23005KT 10SM CLR 14/M12 A3003 RMK AO2 SLP118 T01441117 51013

VFR

12.2°C / °C

[More]
Wind variable 0kt
Visibility >10km
Weather -
Clouds Clear
Pressure 1011
Change -
Raw KFMN 241353Z 00000KT 10SM CLR 12/M13 A3002 RMK AO2 SLP116 T01221128

VFR

8.3°C / °C

[More]
Wind 20º 3kt
Visibility >10km
Weather -
Clouds Overcast 12000ft
Pressure 1011
Change -
Raw KFMN 241253Z 02003KT 10SM OVC120 08/M13 A3000 RMK AO2 SLP113 T00831133

VFR

8.9°C / °C

[More]
Wind 190º 3kt
Visibility >10km
Weather -
Clouds Clear
Pressure 1010
Change -
Raw KFMN 241153Z 19003KT 10SM CLR 09/M14 A2998 RMK AO2 SLP105 T00891139 10167 20078 51006

VFR

10°C / °C

[More]
Wind 270º 5kt
Visibility >10km
Weather -
Clouds Clear
Pressure 1010
Change -
Raw KFMN 241053Z AUTO 27005KT 10SM CLR 10/M16 A2998 RMK AO2 SLP101 T01001156

VFR

11.1°C / °C

[More]
Wind variable 0kt
Visibility >10km
Weather -
Clouds Clear
Pressure 1009
Change -
Raw KFMN 240953Z AUTO 00000KT 10SM CLR 11/M15 A2997 RMK AO2 SLP098 T01111150

VFR

11.7°C / °C

[More]
Wind 250º 6kt
Visibility >10km
Weather -
Clouds Clear
Pressure 1009
Change -
Raw KFMN 240853Z AUTO 25006KT 10SM CLR 12/M14 A2996 RMK AO2 SLP094 T01171139 53014

VFR

13.9°C / -8.3°C

[More]
Wind 270º 7kt
Visibility >10km
Weather -
Clouds Clear
Pressure 1008
Change -
Raw KFMN 240753Z AUTO 27007KT 10SM CLR 14/M08 A2994 RMK AO2 SLP084 T01391083

VFR

15.6°C / -7.8°C

[More]
Wind 290º 8kt
Visibility >10km
Weather -
Clouds Clear
Pressure 1007
Change -
Raw KFMN 240653Z AUTO 29008KT 10SM CLR 16/M08 A2993 RMK AO2 SLP079 T01561078 402720078

VFR

16.7°C / -7.2°C

[More]
Wind 320º 7kt
Visibility >10km
Weather -
Clouds Clear
Pressure 1007
Change -
Raw KFMN 240553Z AUTO 32007KT 10SM CLR 17/M07 A2991 RMK AO2 SLP072 T01671072 10267 20161 53019

VFR

18.3°C / -6.7°C

[More]
Wind 340º 7kt
Visibility >10km
Weather -
Clouds Few Clouds 12000ft
Pressure 1006
Change -
Raw KFMN 240453Z AUTO 34007KT 10SM FEW120 18/M07 A2989 RMK AO2 SLP064 T01831067

VFR

21.1°C / -7.2°C

[More]
Wind 330º 13kt Gust 19kt. Wind Shift present.
Visibility >10km
Weather -
Clouds Overcast 12000ft
Pressure 1004
Change -
Raw KFMN 240353Z AUTO 33013G19KT 10SM OVC120 21/M07 A2985 RMK AO2 WSHFT 0328 SLP048 T02111072

VFR

21°C / -7°C

[More]
Wind 320º 12kt. Wind Shift present.
Visibility >10km
Weather -
Clouds Broken Clouds 12000ft
Pressure
Change -
Raw KFMN 240348Z AUTO 32012KT 10SM BKN120 21/M07 A2985 RMK AO2 WSHFT 0328

VFR

22.8°C / °C

[More]
Wind 270º 14kt Gust 22kt
Visibility >10km
Weather -
Clouds Clear
Pressure 1004
Change -
Raw KFMN 240253Z 27014G22KT 10SM CLR 23/M10 A2982 RMK AO2 SLP040 T02281100 53006

VFR

23.9°C / °C

[More]
Wind 260º 12kt Gust 21kt
Visibility >10km
Weather -
Clouds Clear
Pressure 1003
Change -
Raw KFMN 240153Z 26012G21KT 10SM CLR 24/M11 A2980 RMK AO2 PK WND 30027/0106 SLP037 T02391111

TAF for Farmington (KFMN)

From till


From till Wind 260º 8kt. Visibility 9700m. Scattered Clouds 25000ft.
From till Wind 6kt. Visibility 9700m. Scattered Clouds 20000ft.
From till Wind 250º 15kt. Gust 23kt. Visibility 9700m. Few Clouds 10000ft.
From till Wind 270º 24kt. Gust 33kt. Visibility 9700m. Few Clouds 11000ft.

Raw: KFMN 242338Z 2500/2524 26008KT P6SM SCT250 FM250300 VRB06KT P6SM SCT200 FM251700 25015G23KT P6SM FEW100 FM252100 27024G33KT P6SM FEW110

rainNOW: Rain nowcast for Farmington and surroundings (25km radius)

0.0 mm
0.0 mm
0.0 mm
0.0 mm
0.0 mm
0.0 mm
0.0 mm
0.0 mm
0.0 mm
0.0 mm
0.0 mm
0.0 mm

Radar and precipitation nowcast for Farmington

Drizzle
Light
Moderate
Heavy
Very Heavy
Hail

The location marker is placed on Farmington. This animation shows the precipitation radar for the selected time range, as well as a 1h forecast. Orange crosses indicate lightning. Data provided by nowcast.de (available in USA, Europe, Australia). Drizzle or light snow fall might be invisible for the radar. Precipitation intensity is colour coded, ranging from turquoise to red.

Current satellite images for Farmington, United States

The location marker is placed on Farmington. [More]

The real-time satellite image combines visible light during daytime with infrared radiation during nighttime. At night, the image is not dark as infrared radiation can detect temperature differences. Unfortunately, low clouds and fog are difficult to distinguish from ground temperatures and thus can be almost invisible during the night. Meteosat satellite images for Europe are updated in real-time every 5 minutes. GOES-16/GOES-17 (North & South America) and Himawari (Asia) images update every 10 minutes.

Precipitation is estimated from radar and satellites. Precipitation estimates from satellites are less accurate at night than during daytime.

© 2024 meteoblue, NOAA Satellites GOES-16 and EUMETSAT. Lightning data provided by nowcast.

Back to top
×
Hey there,
seems like you are using an ad blocker.

Advertising is essential to maintain our free website with unique detail and accuracy.

Please whitelist www.meteoblue.com on your ad blocker or consider buying one of our products:

Already have a subscription?
Then please login.